sensor_id;sensor_type;location;lat;lon;timestamp;temperature;humidity
19586;DHT22;9939;49.246;9.106;2023-02-21T00:00:34;5.70;99.90
19586;DHT22;9939;49.246;9.106;2023-02-21T00:03:20;5.90;99.90
19586;DHT22;9939;49.246;9.106;2023-02-21T00:06:09;5.70;99.90
19586;DHT22;9939;49.246;9.106;2023-02-21T00:08:54;5.50;99.90
19586;DHT22;9939;49.246;9.106;2023-02-21T00:11:41;5.30;99.90
19586;DHT22;9939;49.246;9.106;2023-02-21T00:14:26;5.30;99.90
19586;DHT22;9939;49.246;9.106;2023-02-21T00:17:11;5.30;99.90
19586;DHT22;9939;49.246;9.106;2023-02-21T00:19:57;5.20;99.90
19586;DHT22;9939;49.246;9.106;2023-02-21T00:22:44;5.20;99.90
19586;DHT22;9939;49.246;9.106;2023-02-21T00:25:30;5.20;99.90
19586;DHT22;9939;49.246;9.106;2023-02-21T00:28:15;5.10;99.90
19586;DHT22;9939;49.246;9.106;2023-02-21T00:31:03;4.90;99.90
19586;DHT22;9939;49.246;9.106;2023-02-21T00:33:50;4.80;99.90
19586;DHT22;9939;49.246;9.106;2023-02-21T00:36:35;4.70;99.90
19586;DHT22;9939;49.246;9.106;2023-02-21T00:39:21;4.60;99.90
19586;DHT22;9939;49.246;9.106;2023-02-21T00:42:06;4.50;99.90
19586;DHT22;9939;49.246;9.106;2023-02-21T00:44:52;4.70;99.90
19586;DHT22;9939;49.246;9.106;2023-02-21T00:47:38;4.60;99.90
19586;DHT22;9939;49.246;9.106;2023-02-21T00:50:24;4.60;99.90
19586;DHT22;9939;49.246;9.106;2023-02-21T00:53:10;4.60;99.90
19586;DHT22;9939;49.246;9.106;2023-02-21T00:55:56;4.50;99.90
19586;DHT22;9939;49.246;9.106;2023-02-21T00:58:42;4.50;99.90
19586;DHT22;9939;49.246;9.106;2023-02-21T01:01:27;4.40;99.90
19586;DHT22;9939;49.246;9.106;2023-02-21T01:04:13;4.30;99.90
19586;DHT22;9939;49.246;9.106;2023-02-21T01:06:59;4.20;99.90
19586;DHT22;9939;49.246;9.106;2023-02-21T01:09:44;4.10;99.90
19586;DHT22;9939;49.246;9.106;2023-02-21T01:12:30;4.10;99.90
19586;DHT22;9939;49.246;9.106;2023-02-21T01:15:17;4.10;99.90
19586;DHT22;9939;49.246;9.106;2023-02-21T01:18:02;4.10;99.90
19586;DHT22;9939;49.246;9.106;2023-02-21T01:20:48;4.00;99.90
19586;DHT22;9939;49.246;9.106;2023-02-21T01:23:33;4.00;99.90
19586;DHT22;9939;49.246;9.106;2023-02-21T01:26:19;4.00;99.90
19586;DHT22;9939;49.246;9.106;2023-02-21T01:29:04;4.30;99.90
19586;DHT22;9939;49.246;9.106;2023-02-21T01:31:50;4.10;99.90
19586;DHT22;9939;49.246;9.106;2023-02-21T01:34:38;4.00;99.90
19586;DHT22;9939;49.246;9.106;2023-02-21T01:37:24;4.00;99.90
19586;DHT22;9939;49.246;9.106;2023-02-21T01:40:13;4.00;99.90
19586;DHT22;9939;49.246;9.106;2023-02-21T01:42:58;3.90;99.90
19586;DHT22;9939;49.246;9.106;2023-02-21T01:45:48;3.80;99.90
19586;DHT22;9939;49.246;9.106;2023-02-21T01:48:34;3.70;99.90
19586;DHT22;9939;49.246;9.106;2023-02-21T01:51:22;3.80;99.90
19586;DHT22;9939;49.246;9.106;2023-02-21T01:54:08;3.70;99.90
19586;DHT22;9939;49.246;9.106;2023-02-21T01:56:54;3.80;99.90
19586;DHT22;9939;49.246;9.106;2023-02-21T01:59:40;4.00;99.90
19586;DHT22;9939;49.246;9.106;2023-02-21T02:05:13;3.60;99.90
19586;DHT22;9939;49.246;9.106;2023-02-21T02:07:58;3.50;99.90
19586;DHT22;9939;49.246;9.106;2023-02-21T02:10:44;3.50;99.90
19586;DHT22;9939;49.246;9.106;2023-02-21T02:35:16;3.50;99.90
19586;DHT22;9939;49.246;9.106;2023-02-21T02:42:51;3.30;99.90
19586;DHT22;9939;49.246;9.106;2023-02-21T02:45:24;3.50;99.90
19586;DHT22;9939;49.246;9.106;2023-02-21T02:47:54;3.50;99.90
19586;DHT22;9939;49.246;9.106;2023-02-21T02:50:23;3.70;99.90
19586;DHT22;9939;49.246;9.106;2023-02-21T02:52:52;3.60;99.90
19586;DHT22;9939;49.246;9.106;2023-02-21T02:57:54;3.30;99.90
19586;DHT22;9939;49.246;9.106;2023-02-21T03:00:21;3.20;99.90
19586;DHT22;9939;49.246;9.106;2023-02-21T03:10:38;3.30;99.90
19586;DHT22;9939;49.246;9.106;2023-02-21T03:16:00;3.30;99.90
19586;DHT22;9939;49.246;9.106;2023-02-21T03:18:43;3.30;99.90
19586;DHT22;9939;49.246;9.106;2023-02-21T03:21:20;3.30;99.90
19586;DHT22;9939;49.246;9.106;2023-02-21T03:23:48;3.30;99.90
19586;DHT22;9939;49.246;9.106;2023-02-21T03:26:16;3.30;99.90
19586;DHT22;9939;49.246;9.106;2023-02-21T03:28:46;3.20;99.90
19586;DHT22;9939;49.246;9.106;2023-02-21T03:31:15;3.10;99.90
19586;DHT22;9939;49.246;9.106;2023-02-21T03:33:43;3.20;99.90
19586;DHT22;9939;49.246;9.106;2023-02-21T03:36:10;3.20;99.90
19586;DHT22;9939;49.246;9.106;2023-02-21T03:38:37;3.30;99.90
19586;DHT22;9939;49.246;9.106;2023-02-21T03:41:05;3.20;99.90
19586;DHT22;9939;49.246;9.106;2023-02-21T03:43:33;3.10;99.90
19586;DHT22;9939;49.246;9.106;2023-02-21T03:46:02;3.10;99.90
19586;DHT22;9939;49.246;9.106;2023-02-21T03:48:30;3.00;99.90
19586;DHT22;9939;49.246;9.106;2023-02-21T03:51:24;2.90;99.90
19586;DHT22;9939;49.246;9.106;2023-02-21T03:53:51;2.90;99.90
19586;DHT22;9939;49.246;9.106;2023-02-21T03:56:20;2.90;99.90
19586;DHT22;9939;49.246;9.106;2023-02-21T03:59:05;2.90;99.90
19586;DHT22;9939;49.246;9.106;2023-02-21T04:01:32;2.80;99.90
19586;DHT22;9939;49.246;9.106;2023-02-21T04:03:59;2.90;99.90
19586;DHT22;9939;49.246;9.106;2023-02-21T04:06:27;2.80;99.90
19586;DHT22;9939;49.246;9.106;2023-02-21T04:08:55;2.90;99.90
19586;DHT22;9939;49.246;9.106;2023-02-21T04:11:24;2.90;99.90
19586;DHT22;9939;49.246;9.106;2023-02-21T04:13:52;3.00;99.90
19586;DHT22;9939;49.246;9.106;2023-02-21T04:16:19;3.00;99.90
19586;DHT22;9939;49.246;9.106;2023-02-21T04:18:49;2.90;99.90
19586;DHT22;9939;49.246;9.106;2023-02-21T04:21:16;2.90;99.90
19586;DHT22;9939;49.246;9.106;2023-02-21T04:23:44;2.80;99.90
19586;DHT22;9939;49.246;9.106;2023-02-21T04:26:11;2.90;99.90
19586;DHT22;9939;49.246;9.106;2023-02-21T04:28:43;2.90;99.90
19586;DHT22;9939;49.246;9.106;2023-02-21T04:31:12;2.80;99.90
19586;DHT22;9939;49.246;9.106;2023-02-21T04:33:40;2.90;99.90
19586;DHT22;9939;49.246;9.106;2023-02-21T04:36:10;2.90;99.90
19586;DHT22;9939;49.246;9.106;2023-02-21T04:38:41;2.80;99.90
19586;DHT22;9939;49.246;9.106;2023-02-21T04:41:08;2.90;99.90
19586;DHT22;9939;49.246;9.106;2023-02-21T04:43:35;2.90;99.90
19586;DHT22;9939;49.246;9.106;2023-02-21T04:46:02;2.90;99.90
19586;DHT22;9939;49.246;9.106;2023-02-21T04:48:29;2.90;99.90
19586;DHT22;9939;49.246;9.106;2023-02-21T04:50:56;2.80;99.90
19586;DHT22;9939;49.246;9.106;2023-02-21T04:53:40;2.80;99.90
19586;DHT22;9939;49.246;9.106;2023-02-21T04:56:07;2.80;99.90
19586;DHT22;9939;49.246;9.106;2023-02-21T04:58:34;2.80;99.90
19586;DHT22;9939;49.246;9.106;2023-02-21T05:01:11;2.70;99.90
19586;DHT22;9939;49.246;9.106;2023-02-21T05:03:38;2.80;99.90
19586;DHT22;9939;49.246;9.106;2023-02-21T05:06:05;2.80;99.90
19586;DHT22;9939;49.246;9.106;2023-02-21T05:08:32;2.90;99.90
19586;DHT22;9939;49.246;9.106;2023-02-21T05:10:59;3.00;99.90
19586;DHT22;9939;49.246;9.106;2023-02-21T05:13:26;2.80;99.90
19586;DHT22;9939;49.246;9.106;2023-02-21T05:15:52;2.70;99.90
19586;DHT22;9939;49.246;9.106;2023-02-21T05:18:19;2.60;99.90
19586;DHT22;9939;49.246;9.106;2023-02-21T05:20:49;2.60;99.90
19586;DHT22;9939;49.246;9.106;2023-02-21T05:23:16;2.60;99.90
19586;DHT22;9939;49.246;9.106;2023-02-21T05:25:44;2.50;99.90
19586;DHT22;9939;49.246;9.106;2023-02-21T05:28:11;2.50;99.90
19586;DHT22;9939;49.246;9.106;2023-02-21T05:30:38;2.50;99.90
19586;DHT22;9939;49.246;9.106;2023-02-21T05:33:05;2.40;99.90
19586;DHT22;9939;49.246;9.106;2023-02-21T05:35:32;2.50;99.90
19586;DHT22;9939;49.246;9.106;2023-02-21T05:37:58;2.70;99.90
19586;DHT22;9939;49.246;9.106;2023-02-21T05:40:25;2.60;99.90
19586;DHT22;9939;49.246;9.106;2023-02-21T05:42:52;2.70;99.90
19586;DHT22;9939;49.246;9.106;2023-02-21T05:45:19;2.70;99.90
19586;DHT22;9939;49.246;9.106;2023-02-21T05:47:46;2.60;99.90
19586;DHT22;9939;49.246;9.106;2023-02-21T05:50:12;2.60;99.90
19586;DHT22;9939;49.246;9.106;2023-02-21T05:52:39;2.70;99.90
19586;DHT22;9939;49.246;9.106;2023-02-21T05:55:06;2.60;99.90
19586;DHT22;9939;49.246;9.106;2023-02-21T05:57:37;2.60;99.90
19586;DHT22;9939;49.246;9.106;2023-02-21T06:00:04;2.50;99.90
19586;DHT22;9939;49.246;9.106;2023-02-21T06:02:37;2.40;99.90
19586;DHT22;9939;49.246;9.106;2023-02-21T06:05:04;2.40;99.90
19586;DHT22;9939;49.246;9.106;2023-02-21T06:07:31;2.40;99.90
19586;DHT22;9939;49.246;9.106;2023-02-21T06:09:58;2.30;99.90
19586;DHT22;9939;49.246;9.106;2023-02-21T06:12:24;2.20;99.90
19586;DHT22;9939;49.246;9.106;2023-02-21T06:14:51;2.20;99.90
19586;DHT22;9939;49.246;9.106;2023-02-21T06:17:18;2.20;99.90
19586;DHT22;9939;49.246;9.106;2023-02-21T06:19:45;2.20;99.90
19586;DHT22;9939;49.246;9.106;2023-02-21T06:22:12;2.20;99.90
19586;DHT22;9939;49.246;9.106;2023-02-21T06:24:39;2.20;99.90
19586;DHT22;9939;49.246;9.106;2023-02-21T06:27:06;2.20;99.90
19586;DHT22;9939;49.246;9.106;2023-02-21T06:29:33;2.20;99.90
19586;DHT22;9939;49.246;9.106;2023-02-21T06:32:00;2.20;99.90
19586;DHT22;9939;49.246;9.106;2023-02-21T06:34:27;2.20;99.90
19586;DHT22;9939;49.246;9.106;2023-02-21T06:36:54;2.30;99.90
19586;DHT22;9939;49.246;9.106;2023-02-21T06:39:21;2.40;99.90
19586;DHT22;9939;49.246;9.106;2023-02-21T06:41:48;2.50;99.90
19586;DHT22;9939;49.246;9.106;2023-02-21T06:44:15;2.50;99.90
19586;DHT22;9939;49.246;9.106;2023-02-21T06:46:42;2.40;99.90
19586;DHT22;9939;49.246;9.106;2023-02-21T06:49:09;2.40;99.90
19586;DHT22;9939;49.246;9.106;2023-02-21T06:51:37;2.30;99.90
19586;DHT22;9939;49.246;9.106;2023-02-21T06:54:04;2.40;99.90
19586;DHT22;9939;49.246;9.106;2023-02-21T06:56:31;2.40;99.90
19586;DHT22;9939;49.246;9.106;2023-02-21T06:58:58;2.50;99.90
19586;DHT22;9939;49.246;9.106;2023-02-21T07:01:25;2.60;99.90
19586;DHT22;9939;49.246;9.106;2023-02-21T07:03:54;2.60;99.90
19586;DHT22;9939;49.246;9.106;2023-02-21T07:06:21;2.70;99.90
19586;DHT22;9939;49.246;9.106;2023-02-21T07:08:47;2.70;99.90
19586;DHT22;9939;49.246;9.106;2023-02-21T07:11:15;2.80;99.90
19586;DHT22;9939;49.246;9.106;2023-02-21T07:13:52;3.00;99.90
19586;DHT22;9939;49.246;9.106;2023-02-21T07:16:19;3.20;99.90
19586;DHT22;9939;49.246;9.106;2023-02-21T07:18:46;3.30;99.90
19586;DHT22;9939;49.246;9.106;2023-02-21T07:21:13;3.40;99.90
19586;DHT22;9939;49.246;9.106;2023-02-21T07:23:44;3.70;99.90
19586;DHT22;9939;49.246;9.106;2023-02-21T07:26:11;4.10;99.90
19586;DHT22;9939;49.246;9.106;2023-02-21T07:28:38;4.20;99.90
19586;DHT22;9939;49.246;9.106;2023-02-21T07:31:05;4.20;99.90
19586;DHT22;9939;49.246;9.106;2023-02-21T07:33:32;4.10;99.90
19586;DHT22;9939;49.246;9.106;2023-02-21T07:35:59;4.30;99.90
19586;DHT22;9939;49.246;9.106;2023-02-21T07:38:26;4.30;99.90
19586;DHT22;9939;49.246;9.106;2023-02-21T07:40:54;4.20;99.90
19586;DHT22;9939;49.246;9.106;2023-02-21T07:43:21;4.10;99.90
19586;DHT22;9939;49.246;9.106;2023-02-21T07:45:48;4.30;99.90
19586;DHT22;9939;49.246;9.106;2023-02-21T07:48:15;4.40;99.90
19586;DHT22;9939;49.246;9.106;2023-02-21T07:50:42;4.40;99.90
19586;DHT22;9939;49.246;9.106;2023-02-21T07:53:09;4.50;99.90
19586;DHT22;9939;49.246;9.106;2023-02-21T07:55:36;4.50;99.90
19586;DHT22;9939;49.246;9.106;2023-02-21T07:58:04;4.60;99.90
19586;DHT22;9939;49.246;9.106;2023-02-21T08:00:31;4.60;99.90
19586;DHT22;9939;49.246;9.106;2023-02-21T08:02:58;4.60;99.90
19586;DHT22;9939;49.246;9.106;2023-02-21T08:05:25;4.80;99.90
19586;DHT22;9939;49.246;9.106;2023-02-21T08:07:52;5.10;99.90
19586;DHT22;9939;49.246;9.106;2023-02-21T08:10:23;5.90;99.90
19586;DHT22;9939;49.246;9.106;2023-02-21T08:12:50;6.60;99.90
19586;DHT22;9939;49.246;9.106;2023-02-21T08:15:17;7.60;99.90
19586;DHT22;9939;49.246;9.106;2023-02-21T08:17:46;9.10;99.90
19586;DHT22;9939;49.246;9.106;2023-02-21T08:20:13;10.80;99.90
19586;DHT22;9939;49.246;9.106;2023-02-21T08:22:40;11.90;99.90
19586;DHT22;9939;49.246;9.106;2023-02-21T08:25:08;12.50;99.90
19586;DHT22;9939;49.246;9.106;2023-02-21T08:27:37;12.60;99.90
19586;DHT22;9939;49.246;9.106;2023-02-21T08:30:04;12.40;99.90
19586;DHT22;9939;49.246;9.106;2023-02-21T08:32:31;13.00;99.90
19586;DHT22;9939;49.246;9.106;2023-02-21T08:34:59;13.80;99.90
19586;DHT22;9939;49.246;9.106;2023-02-21T08:37:26;14.30;99.90
19586;DHT22;9939;49.246;9.106;2023-02-21T08:39:58;15.50;99.90
19586;DHT22;9939;49.246;9.106;2023-02-21T08:42:25;15.50;99.90
19586;DHT22;9939;49.246;9.106;2023-02-21T08:44:52;15.40;99.90
19586;DHT22;9939;49.246;9.106;2023-02-21T08:47:19;15.60;99.90
19586;DHT22;9939;49.246;9.106;2023-02-21T08:49:46;15.90;99.90
19586;DHT22;9939;49.246;9.106;2023-02-21T08:52:17;16.00;99.90
19586;DHT22;9939;49.246;9.106;2023-02-21T08:54:44;16.30;99.90
19586;DHT22;9939;49.246;9.106;2023-02-21T08:57:10;15.80;99.90
19586;DHT22;9939;49.246;9.106;2023-02-21T08:59:41;16.30;99.90
19586;DHT22;9939;49.246;9.106;2023-02-21T09:02:13;16.00;99.90
19586;DHT22;9939;49.246;9.106;2023-02-21T09:04:41;17.00;99.90
19586;DHT22;9939;49.246;9.106;2023-02-21T09:07:10;17.20;99.90
19586;DHT22;9939;49.246;9.106;2023-02-21T09:09:37;16.90;99.90
19586;DHT22;9939;49.246;9.106;2023-02-21T09:12:04;17.70;99.90
19586;DHT22;9939;49.246;9.106;2023-02-21T09:14:34;16.90;99.90
19586;DHT22;9939;49.246;9.106;2023-02-21T09:17:02;17.30;99.90
19586;DHT22;9939;49.246;9.106;2023-02-21T09:19:29;17.50;99.90
19586;DHT22;9939;49.246;9.106;2023-02-21T09:21:56;18.10;99.90
19586;DHT22;9939;49.246;9.106;2023-02-21T09:24:23;18.70;99.90
19586;DHT22;9939;49.246;9.106;2023-02-21T09:26:51;17.50;99.90
19586;DHT22;9939;49.246;9.106;2023-02-21T09:29:22;18.80;99.90
19586;DHT22;9939;49.246;9.106;2023-02-21T09:31:53;18.80;99.90
19586;DHT22;9939;49.246;9.106;2023-02-21T09:34:20;18.30;99.90
19586;DHT22;9939;49.246;9.106;2023-02-21T09:36:48;19.50;99.90
19586;DHT22;9939;49.246;9.106;2023-02-21T09:39:16;20.50;99.90
19586;DHT22;9939;49.246;9.106;2023-02-21T09:41:44;20.50;99.90
19586;DHT22;9939;49.246;9.106;2023-02-21T09:44:13;20.80;99.90
19586;DHT22;9939;49.246;9.106;2023-02-21T09:46:41;20.70;99.90
19586;DHT22;9939;49.246;9.106;2023-02-21T09:49:20;20.90;99.90
19586;DHT22;9939;49.246;9.106;2023-02-21T09:51:48;21.10;99.90
19586;DHT22;9939;49.246;9.106;2023-02-21T09:54:32;21.40;99.90
19586;DHT22;9939;49.246;9.106;2023-02-21T09:57:00;19.90;99.90
19586;DHT22;9939;49.246;9.106;2023-02-21T09:59:27;19.60;99.90
19586;DHT22;9939;49.246;9.106;2023-02-21T10:06:59;20.20;99.90
19586;DHT22;9939;49.246;9.106;2023-02-21T10:12:01;20.90;99.90
19586;DHT22;9939;49.246;9.106;2023-02-21T10:17:44;22.40;99.90
19586;DHT22;9939;49.246;9.106;2023-02-21T10:19:52;22.80;99.90
19586;DHT22;9939;49.246;9.106;2023-02-21T10:22:23;23.90;99.90
19586;DHT22;9939;49.246;9.106;2023-02-21T10:24:51;24.20;99.90
19586;DHT22;9939;49.246;9.106;2023-02-21T10:27:19;24.70;99.70
19586;DHT22;9939;49.246;9.106;2023-02-21T10:30:03;24.00;99.70
19586;DHT22;9939;49.246;9.106;2023-02-21T10:32:31;21.70;99.90
19586;DHT22;9939;49.246;9.106;2023-02-21T10:34:58;22.30;99.90
19586;DHT22;9939;49.246;9.106;2023-02-21T10:37:38;23.00;99.90
19586;DHT22;9939;49.246;9.106;2023-02-21T10:46:00;23.70;99.90
19586;DHT22;9939;49.246;9.106;2023-02-21T10:48:31;24.50;99.40
19586;DHT22;9939;49.246;9.106;2023-02-21T10:51:04;24.00;99.90
19586;DHT22;9939;49.246;9.106;2023-02-21T10:53:33;22.50;99.90
19586;DHT22;9939;49.246;9.106;2023-02-21T10:58:47;22.30;99.90
19586;DHT22;9939;49.246;9.106;2023-02-21T11:01:18;22.30;99.90
19586;DHT22;9939;49.246;9.106;2023-02-21T11:03:49;22.30;99.90
19586;DHT22;9939;49.246;9.106;2023-02-21T11:09:22;22.30;99.50
19586;DHT22;9939;49.246;9.106;2023-02-21T11:11:58;23.20;99.00
19586;DHT22;9939;49.246;9.106;2023-02-21T11:14:25;22.00;99.90
19586;DHT22;9939;49.246;9.106;2023-02-21T11:22:09;23.10;99.10
19586;DHT22;9939;49.246;9.106;2023-02-21T11:24:57;22.80;98.60
19586;DHT22;9939;49.246;9.106;2023-02-21T11:27:26;23.30;98.60
19586;DHT22;9939;49.246;9.106;2023-02-21T11:29:53;25.50;96.50
19586;DHT22;9939;49.246;9.106;2023-02-21T11:32:22;26.70;95.50
19586;DHT22;9939;49.246;9.106;2023-02-21T11:34:50;25.70;95.20
19586;DHT22;9939;49.246;9.106;2023-02-21T11:37:17;25.40;94.70
19586;DHT22;9939;49.246;9.106;2023-02-21T11:39:49;23.80;96.30
19586;DHT22;9939;49.246;9.106;2023-02-21T11:42:27;25.20;95.60
19586;DHT22;9939;49.246;9.106;2023-02-21T11:45:18;25.60;94.30
19586;DHT22;9939;49.246;9.106;2023-02-21T11:47:43;24.00;95.00
19586;DHT22;9939;49.246;9.106;2023-02-21T11:52:39;24.30;94.20
19586;DHT22;9939;49.246;9.106;2023-02-21T11:55:12;24.50;94.50
19586;DHT22;9939;49.246;9.106;2023-02-21T12:00:28;25.70;93.50
19586;DHT22;9939;49.246;9.106;2023-02-21T12:26:29;26.20;90.40
19586;DHT22;9939;49.246;9.106;2023-02-21T12:37:31;25.60;92.20
19586;DHT22;9939;49.246;9.106;2023-02-21T12:40:44;24.60;88.20
19586;DHT22;9939;49.246;9.106;2023-02-21T12:48:34;23.90;89.90
19586;DHT22;9939;49.246;9.106;2023-02-21T12:51:05;24.40;89.30
19586;DHT22;9939;49.246;9.106;2023-02-21T12:53:35;24.50;90.70
19586;DHT22;9939;49.246;9.106;2023-02-21T12:58:44;23.30;92.50
19586;DHT22;9939;49.246;9.106;2023-02-21T13:01:16;24.70;88.20
19586;DHT22;9939;49.246;9.106;2023-02-21T13:03:50;24.90;88.70
19586;DHT22;9939;49.246;9.106;2023-02-21T13:06:20;24.50;91.30
19586;DHT22;9939;49.246;9.106;2023-02-21T13:11:45;25.00;90.80
19586;DHT22;9939;49.246;9.106;2023-02-21T13:14:19;24.80;91.30
19586;DHT22;9939;49.246;9.106;2023-02-21T13:16:47;26.40;89.40
19586;DHT22;9939;49.246;9.106;2023-02-21T13:19:14;27.00;87.60
19586;DHT22;9939;49.246;9.106;2023-02-21T13:26:39;25.10;91.00
19586;DHT22;9939;49.246;9.106;2023-02-21T13:29:17;27.20;89.30
19586;DHT22;9939;49.246;9.106;2023-02-21T13:31:44;29.00;86.00
19586;DHT22;9939;49.246;9.106;2023-02-21T13:34:12;30.60;83.10
19586;DHT22;9939;49.246;9.106;2023-02-21T13:36:45;31.70;79.50
19586;DHT22;9939;49.246;9.106;2023-02-21T13:39:19;30.70;77.20
19586;DHT22;9939;49.246;9.106;2023-02-21T13:41:49;31.50;76.00
19586;DHT22;9939;49.246;9.106;2023-02-21T13:44:38;31.50;76.00
19586;DHT22;9939;49.246;9.106;2023-02-21T13:52:14;30.60;74.80
19586;DHT22;9939;49.246;9.106;2023-02-21T13:57:28;31.20;73.40
19586;DHT22;9939;49.246;9.106;2023-02-21T13:59:55;32.00;72.30
19586;DHT22;9939;49.246;9.106;2023-02-21T14:02:26;31.60;72.90
19586;DHT22;9939;49.246;9.106;2023-02-21T14:12:54;31.30;72.30
19586;DHT22;9939;49.246;9.106;2023-02-21T14:15:22;30.80;71.80
19586;DHT22;9939;49.246;9.106;2023-02-21T14:17:50;29.30;73.60
19586;DHT22;9939;49.246;9.106;2023-02-21T14:20:18;28.80;76.40
19586;DHT22;9939;49.246;9.106;2023-02-21T14:22:46;29.30;75.10
19586;DHT22;9939;49.246;9.106;2023-02-21T14:25:16;29.60;74.70
19586;DHT22;9939;49.246;9.106;2023-02-21T14:27:43;30.40;72.40
19586;DHT22;9939;49.246;9.106;2023-02-21T14:32:40;29.80;71.60
19586;DHT22;9939;49.246;9.106;2023-02-21T14:41:00;25.70;77.30
19586;DHT22;9939;49.246;9.106;2023-02-21T14:43:51;24.30;80.70
19586;DHT22;9939;49.246;9.106;2023-02-21T14:46:38;22.90;85.10
19586;DHT22;9939;49.246;9.106;2023-02-21T14:51:57;21.70;87.60
19586;DHT22;9939;49.246;9.106;2023-02-21T15:05:53;18.90;94.20
19586;DHT22;9939;49.246;9.106;2023-02-21T15:10:32;18.00;95.60
19586;DHT22;9939;49.246;9.106;2023-02-21T15:13:05;17.50;97.00
19586;DHT22;9939;49.246;9.106;2023-02-21T15:15:33;17.60;96.80
19586;DHT22;9939;49.246;9.106;2023-02-21T15:20:27;17.60;97.80
19586;DHT22;9939;49.246;9.106;2023-02-21T15:22:56;17.60;98.60
19586;DHT22;9939;49.246;9.106;2023-02-21T15:25:25;17.40;99.50
19586;DHT22;9939;49.246;9.106;2023-02-21T15:27:53;17.20;99.60
19586;DHT22;9939;49.246;9.106;2023-02-21T15:30:21;17.20;99.90
19586;DHT22;9939;49.246;9.106;2023-02-21T15:32:57;17.10;99.90
19586;DHT22;9939;49.246;9.106;2023-02-21T15:35:31;16.90;99.90
19586;DHT22;9939;49.246;9.106;2023-02-21T15:37:59;16.90;99.90
19586;DHT22;9939;49.246;9.106;2023-02-21T15:40:28;16.60;99.90
19586;DHT22;9939;49.246;9.106;2023-02-21T15:42:55;16.60;99.90
19586;DHT22;9939;49.246;9.106;2023-02-21T15:45:29;16.30;99.90
19586;DHT22;9939;49.246;9.106;2023-02-21T15:47:57;16.10;99.90
19586;DHT22;9939;49.246;9.106;2023-02-21T15:52:54;16.10;99.90
19586;DHT22;9939;49.246;9.106;2023-02-21T15:57:59;15.70;99.90
19586;DHT22;9939;49.246;9.106;2023-02-21T16:03:24;15.40;99.90
19586;DHT22;9939;49.246;9.106;2023-02-21T16:05:39;15.20;99.90
19586;DHT22;9939;49.246;9.106;2023-02-21T16:08:10;15.00;99.90
19586;DHT22;9939;49.246;9.106;2023-02-21T16:10:39;14.90;99.90
19586;DHT22;9939;49.246;9.106;2023-02-21T16:13:07;14.70;99.90
19586;DHT22;9939;49.246;9.106;2023-02-21T16:15:34;14.40;99.90
19586;DHT22;9939;49.246;9.106;2023-02-21T16:18:02;14.10;99.90
19586;DHT22;9939;49.246;9.106;2023-02-21T16:20:35;13.90;99.90
19586;DHT22;9939;49.246;9.106;2023-02-21T16:23:12;13.70;99.90
19586;DHT22;9939;49.246;9.106;2023-02-21T16:28:26;13.30;99.90
19586;DHT22;9939;49.246;9.106;2023-02-21T16:30:54;13.10;99.90
19586;DHT22;9939;49.246;9.106;2023-02-21T16:33:24;13.00;99.90
19586;DHT22;9939;49.246;9.106;2023-02-21T16:35:51;12.80;99.90
19586;DHT22;9939;49.246;9.106;2023-02-21T16:38:19;12.60;99.90
19586;DHT22;9939;49.246;9.106;2023-02-21T16:40:47;12.50;99.90
19586;DHT22;9939;49.246;9.106;2023-02-21T16:43:15;12.30;99.90
19586;DHT22;9939;49.246;9.106;2023-02-21T16:45:43;12.00;99.90
19586;DHT22;9939;49.246;9.106;2023-02-21T16:48:13;11.80;99.90
19586;DHT22;9939;49.246;9.106;2023-02-21T16:50:44;11.60;99.90
19586;DHT22;9939;49.246;9.106;2023-02-21T16:53:11;11.40;99.90
19586;DHT22;9939;49.246;9.106;2023-02-21T16:55:39;11.10;99.90
19586;DHT22;9939;49.246;9.106;2023-02-21T16:58:43;10.90;99.90
19586;DHT22;9939;49.246;9.106;2023-02-21T17:01:07;10.70;99.90
19586;DHT22;9939;49.246;9.106;2023-02-21T17:03:34;10.50;99.90
19586;DHT22;9939;49.246;9.106;2023-02-21T17:06:01;10.50;99.90
19586;DHT22;9939;49.246;9.106;2023-02-21T17:08:27;10.30;99.90
19586;DHT22;9939;49.246;9.106;2023-02-21T17:10:55;10.20;99.90
19586;DHT22;9939;49.246;9.106;2023-02-21T17:13:22;10.00;99.90
19586;DHT22;9939;49.246;9.106;2023-02-21T17:15:49;9.90;99.90
19586;DHT22;9939;49.246;9.106;2023-02-21T17:18:19;9.80;99.90
19586;DHT22;9939;49.246;9.106;2023-02-21T17:20:45;9.60;99.90
19586;DHT22;9939;49.246;9.106;2023-02-21T17:23:12;9.50;99.90
19586;DHT22;9939;49.246;9.106;2023-02-21T17:25:39;9.40;99.90
19586;DHT22;9939;49.246;9.106;2023-02-21T17:28:06;9.30;99.90
19586;DHT22;9939;49.246;9.106;2023-02-21T17:30:33;9.30;99.90
19586;DHT22;9939;49.246;9.106;2023-02-21T17:33:00;9.20;99.90
19586;DHT22;9939;49.246;9.106;2023-02-21T17:35:27;9.20;99.90
19586;DHT22;9939;49.246;9.106;2023-02-21T17:37:54;9.10;99.90
19586;DHT22;9939;49.246;9.106;2023-02-21T17:40:21;9.10;99.90
19586;DHT22;9939;49.246;9.106;2023-02-21T17:42:48;9.00;99.90
19586;DHT22;9939;49.246;9.106;2023-02-21T17:45:16;8.90;99.90
19586;DHT22;9939;49.246;9.106;2023-02-21T17:47:43;8.80;99.90
19586;DHT22;9939;49.246;9.106;2023-02-21T17:50:10;8.80;99.90
19586;DHT22;9939;49.246;9.106;2023-02-21T17:52:39;8.70;99.90
19586;DHT22;9939;49.246;9.106;2023-02-21T17:55:07;8.70;99.90
19586;DHT22;9939;49.246;9.106;2023-02-21T17:57:34;8.60;99.90
19586;DHT22;9939;49.246;9.106;2023-02-21T18:00:10;8.50;99.90
19586;DHT22;9939;49.246;9.106;2023-02-21T18:02:39;8.50;99.90
19586;DHT22;9939;49.246;9.106;2023-02-21T18:05:06;8.50;99.90
19586;DHT22;9939;49.246;9.106;2023-02-21T18:07:34;8.40;99.90
19586;DHT22;9939;49.246;9.106;2023-02-21T18:10:02;8.30;99.90
19586;DHT22;9939;49.246;9.106;2023-02-21T18:12:30;8.20;99.90
19586;DHT22;9939;49.246;9.106;2023-02-21T18:15:02;8.20;99.90
19586;DHT22;9939;49.246;9.106;2023-02-21T18:17:31;8.20;99.90
19586;DHT22;9939;49.246;9.106;2023-02-21T18:19:58;8.10;99.90
19586;DHT22;9939;49.246;9.106;2023-02-21T18:22:27;8.00;99.90
19586;DHT22;9939;49.246;9.106;2023-02-21T18:24:55;8.00;99.90
19586;DHT22;9939;49.246;9.106;2023-02-21T18:27:22;7.90;99.90
19586;DHT22;9939;49.246;9.106;2023-02-21T18:29:52;7.80;99.90
19586;DHT22;9939;49.246;9.106;2023-02-21T18:32:22;7.80;99.90
19586;DHT22;9939;49.246;9.106;2023-02-21T18:34:48;7.70;99.90
19586;DHT22;9939;49.246;9.106;2023-02-21T18:37:15;7.60;99.90
19586;DHT22;9939;49.246;9.106;2023-02-21T18:39:42;7.60;99.90
19586;DHT22;9939;49.246;9.106;2023-02-21T18:42:09;7.90;99.90
19586;DHT22;9939;49.246;9.106;2023-02-21T18:44:36;7.90;99.90
19586;DHT22;9939;49.246;9.106;2023-02-21T18:47:03;8.00;99.90
19586;DHT22;9939;49.246;9.106;2023-02-21T18:49:30;8.10;99.90
19586;DHT22;9939;49.246;9.106;2023-02-21T18:52:04;8.10;99.90
19586;DHT22;9939;49.246;9.106;2023-02-21T18:54:32;7.90;99.90
19586;DHT22;9939;49.246;9.106;2023-02-21T18:56:59;7.80;99.90
19586;DHT22;9939;49.246;9.106;2023-02-21T18:59:27;7.70;99.90
19586;DHT22;9939;49.246;9.106;2023-02-21T19:01:54;7.70;99.90
19586;DHT22;9939;49.246;9.106;2023-02-21T19:04:21;7.60;99.90
19586;DHT22;9939;49.246;9.106;2023-02-21T19:06:48;7.80;99.90
19586;DHT22;9939;49.246;9.106;2023-02-21T19:09:15;7.80;99.90
19586;DHT22;9939;49.246;9.106;2023-02-21T19:11:41;7.80;99.90
19586;DHT22;9939;49.246;9.106;2023-02-21T19:14:08;7.60;99.90
19586;DHT22;9939;49.246;9.106;2023-02-21T19:16:35;7.60;99.90